EDT,Max TemperatureF,Mean TemperatureF,Min TemperatureF,Max Dew PointF,MeanDew PointF,Min DewpointF,Max Humidity, Mean Humidity, Min Humidity, Max Sea Level PressureIn, Mean Sea Level PressureIn, Min Sea Level PressureIn, Max VisibilityMiles, Mean VisibilityMiles, Min VisibilityMiles, Max Wind SpeedMPH, Mean Wind SpeedMPH, Max Gust SpeedMPH,PrecipitationIn, CloudCover, Events, WindDirDegrees
2013-4-1,42,34,26,38,28,9,93,79,42,29.98,29.79,29.66,10,6,0,22,15,38,0.06,7,Fog-Rain-Snow,280
2013-4-2,32,26,21,17,13,7,82,62,41,30.18,30.06,29.93,10,8,0,24,15,31,0.00,7,Snow,294
2013-4-3,33,26,21,21,11,3,80,54,34,30.40,30.27,30.15,10,9,1,24,13,31,0.00,3,Snow,300
2013-4-4,43,30,18,14,8,-3,63,41,19,30.38,30.22,29.99,10,10,10,15,6,16,0.00,0,,170
2013-4-5,50,40,30,24,18,14,61,43,28,30.12,29.97,29.92,10,10,10,25,11,33,0.00,0,,286
2013-4-6,50,36,23,18,13,7,75,44,20,30.29,30.20,30.13,10,10,10,14,8,20,0.00,0,,111
2013-4-7,64,52,41,44,30,16,71,44,34,30.12,29.99,29.91,10,10,10,23,14,31,0.00,4,,208
2013-4-8,69,58,48,46,42,38,86,57,33,30.06,29.99,29.93,10,10,10,16,7,22,0.00,5,,216
2013-4-9,75,65,57,50,48,44,77,56,39,30.12,30.02,29.92,10,10,10,17,12,24,0.00,3,,252
2013-4-10,75,65,55,60,53,47,100,70,44,30.02,29.93,29.83,10,8,2,21,13,34,0.37,5,Rain-Thunderstorm,284
2013-4-11,72,61,51,54,52,48,93,77,51,29.88,29.81,29.68,10,9,4,14,7,24,0.00,3,,198
2013-4-12,64,51,39,55,46,30,100,79,51,29.83,29.64,29.58,10,8,3,23,14,36,0.54,7,Rain,216
2013-4-13,51,42,35,32,29,26,76,64,43,29.99,29.89,29.80,10,10,10,20,14,29,0.00,6,,270
2013-4-14,57,42,30,31,26,21,76,53,33,30.15,30.08,29.98,10,10,10,15,10,21,0.00,3,,266
2013-4-15,59,52,48,46,41,32,80,64,47,30.18,30.14,30.05,10,10,10,20,13,32,0.00,7,Rain,157
2013-4-16,75,63,51,56,51,46,94,77,41,30.22,30.16,30.06,10,8,2,23,13,40,0.43,7,Rain-Thunderstorm,236
2013-4-17,62,54,48,54,51,48,100,90,67,30.26,30.19,30.14,10,4,0,12,3,16,0.01,8,Fog,30
2013-4-18,71,62,55,58,53,46,90,76,63,30.20,30.05,29.87,10,8,4,22,13,30,0.00,5,,149
2013-4-19,68,54,39,56,46,29,100,79,63,29.86,29.70,29.53,10,9,2,24,18,33,0.23,5,Rain,232
2013-4-20,43,36,30,30,25,19,93,69,41,30.40,30.01,29.81,10,8,2,25,15,34,0.02,7,Snow,274
2013-4-21,48,36,26,20,17,13,69,49,28,30.59,30.51,30.41,10,10,10,10,5,,0.00,1,,64
2013-4-22,52,42,34,29,22,18,70,46,28,30.52,30.44,30.35,10,10,10,17,10,24,0.00,0,,140
2013-4-23,61,46,32,36,31,26,82,59,33,30.34,30.20,30.06,10,10,10,13,7,20,0.00,0,,140
2013-4-24,69,52,35,54,42,30,94,74,43,30.10,29.92,29.76,10,9,2,26,11,40,0.21,6,Rain-Thunderstorm,234
2013-4-25,53,42,32,34,26,19,89,64,26,30.36,30.21,30.09,10,10,8,15,12,23,0.00,5,,274
2013-4-26,55,45,36,34,25,20,81,51,26,30.47,30.41,30.32,10,10,10,9,5,,0.00,2,,319
2013-4-27,64,51,39,34,28,18,50,39,29,30.42,30.33,30.23,10,10,10,13,4,20,0.00,0,,133
2013-4-28,53,48,44,45,41,34,96,79,52,30.22,30.12,30.05,10,8,4,21,11,28,0.15,5,Rain,140
2013-4-29,54,49,45,50,46,42,96,89,82,30.08,30.04,30.00,10,9,5,17,11,26,0.04,8,Rain,142
2013-4-30,57,52,48,49,47,46,96,84,67,30.27,30.17,30.07,10,10,9,14,9,21,0.00,8,,140